Time;durP1;ratioP1;P1;durP2;ratioP2;P2;SDS_P1;SDS_P2;PMS_P1;PMS_P2;Temp;Humidity;BMP_temperature;BMP_pressure;BME280_temperature;BME280_humidity;BME280_pressure;Samples;Min_cycle;Max_cycle;Signal;HPM_P1;HPM_P2
2024/01/17 00:00:51;;;;;;;32.40;29.43;;;-1.60;88.70;;;;;;5053782;28;20664;-87
2024/01/17 00:03:16;;;;;;;33.30;30.40;;;-1.60;88.60;;;;;;5054641;28;20175;-86
2024/01/17 00:05:42;;;;;;;37.20;29.60;;;-1.60;88.60;;;;;;5053613;28;20176;-87
2024/01/17 00:08:09;;;;;;;29.30;26.90;;;-1.60;88.80;;;;;;5053981;28;20243;-87
2024/01/17 00:10:34;;;;;;;34.27;31.10;;;-1.50;88.70;;;;;;5054402;28;20176;-87
2024/01/17 00:13:01;;;;;;;29.30;27.00;;;-1.50;88.80;;;;;;5054760;28;20207;-87
2024/01/17 00:15:26;;;;;;;31.93;29.13;;;-1.50;88.80;;;;;;5053515;28;20223;-87
2024/01/17 00:17:52;;;;;;;38.00;30.57;;;-1.50;88.70;;;;;;5053933;28;20238;-87
2024/01/17 00:20:17;;;;;;;31.10;28.50;;;-1.40;88.70;;;;;;5054442;28;20196;-87
2024/01/17 00:22:44;;;;;;;43.13;31.53;;;-1.40;88.50;;;;;;5053261;28;20227;-87
2024/01/17 00:25:10;;;;;;;34.77;31.33;;;-1.40;88.60;;;;;;5054715;28;20755;-87
2024/01/17 00:27:37;;;;;;;33.33;30.53;;;-1.40;88.50;;;;;;5053788;28;20670;-87
2024/01/17 00:30:03;;;;;;;30.20;27.80;;;-1.30;88.40;;;;;;5053319;28;20287;-87
2024/01/17 00:32:31;;;;;;;31.03;28.37;;;-1.30;88.50;;;;;;5053484;28;20232;-86
2024/01/17 00:34:57;;;;;;;33.00;29.57;;;-1.30;88.50;;;;;;5054667;28;20188;-87
2024/01/17 00:37:22;;;;;;;31.80;29.07;;;-1.30;88.40;;;;;;5052859;28;20218;-87
2024/01/17 00:39:48;;;;;;;37.37;33.83;;;-1.20;88.40;;;;;;5052526;28;20203;-87
2024/01/17 00:42:14;;;;;;;32.13;29.63;;;-1.10;88.10;;;;;;5052969;28;20725;-87
2024/01/17 00:44:41;;;;;;;32.93;30.17;;;-1.10;88.00;;;;;;5053815;28;20176;-87
2024/01/17 00:47:07;;;;;;;32.53;29.60;;;-1.20;88.00;;;;;;5053223;28;20659;-87
2024/01/17 00:49:32;;;;;;;22.80;20.67;;;-1.20;88.10;;;;;;5053665;28;20173;-87
2024/01/17 00:51:58;;;;;;;23.00;18.53;;;-1.20;88.10;;;;;;5052506;28;20215;-87
2024/01/17 00:54:23;;;;;;;21.83;19.60;;;-1.10;87.80;;;;;;5054351;28;20672;-86
2024/01/17 00:56:49;;;;;;;23.70;21.07;;;-1.10;88.10;;;;;;5053408;28;20540;-87
2024/01/17 00:59:15;;;;;;;21.00;18.90;;;-1.00;88.50;;;;;;5053579;28;20214;-86
2024/01/17 01:01:40;;;;;;;43.50;19.60;;;-1.00;87.90;;;;;;5052727;28;20222;-89
2024/01/17 01:04:08;;;;;;;20.57;18.40;;;-1.10;87.80;;;;;;5053989;28;20187;-88
2024/01/17 01:06:34;;;;;;;22.53;20.47;;;-1.10;87.80;;;;;;5053532;28;20171;-88
2024/01/17 01:08:59;;;;;;;28.37;20.80;;;-1.10;87.90;;;;;;5053592;28;20172;-88
2024/01/17 01:11:29;;;;;;;23.57;21.10;;;-1.00;87.90;;;;;;5052477;28;20677;-89
2024/01/17 01:13:55;;;;;;;27.43;24.50;;;-1.00;88.00;;;;;;5053851;28;20218;-87
2024/01/17 01:16:20;;;;;;;21.90;19.63;;;-1.00;88.00;;;;;;5055381;28;20180;-87
2024/01/17 01:18:46;;;;;;;21.90;19.57;;;-1.00;87.80;;;;;;5053552;28;20178;-87
2024/01/17 01:21:11;;;;;;;22.87;20.37;;;-1.00;87.70;;;;;;5053340;28;20298;-87
2024/01/17 01:23:37;;;;;;;20.57;18.47;;;-1.00;87.90;;;;;;5053028;28;20172;-86
2024/01/17 01:26:03;;;;;;;20.83;18.07;;;-1.00;88.10;;;;;;5052778;28;20174;-86
2024/01/17 01:28:28;;;;;;;21.60;19.63;;;-1.00;87.90;;;;;;5054453;28;20173;-87
2024/01/17 01:30:54;;;;;;;18.20;16.50;;;-1.00;87.90;;;;;;5053041;28;20181;-86
2024/01/17 01:33:19;;;;;;;21.70;19.50;;;-1.00;88.00;;;;;;5053622;28;20180;-87
2024/01/17 01:35:45;;;;;;;22.37;19.97;;;-1.00;88.00;;;;;;5054254;28;20195;-87
2024/01/17 01:38:10;;;;;;;22.93;19.47;;;-1.00;87.60;;;;;;5053054;28;20198;-86
2024/01/17 01:40:38;;;;;;;24.30;19.23;;;-1.00;87.70;;;;;;5052700;28;20312;-87
2024/01/17 01:43:17;;;;;;;19.83;17.93;;;-1.00;87.70;;;;;;5054401;28;20375;-87
2024/01/17 01:45:43;;;;;;;17.83;16.30;;;-1.10;87.60;;;;;;5053406;28;20566;-87
2024/01/17 01:48:08;;;;;;;24.27;21.37;;;-1.00;87.60;;;;;;5052797;28;20172;-86
2024/01/17 01:50:34;;;;;;;22.90;20.33;;;-1.10;87.70;;;;;;5052962;28;20186;-86
2024/01/17 01:52:59;;;;;;;19.70;17.07;;;-1.20;87.80;;;;;;5053244;28;20646;-86
2024/01/17 01:55:25;;;;;;;20.40;18.30;;;-1.20;87.70;;;;;;5054589;28;20176;-86
2024/01/17 01:57:51;;;;;;;20.40;18.23;;;-1.20;87.60;;;;;;5053325;28;20180;-87
2024/01/17 02:00:17;;;;;;;23.93;18.77;;;-1.20;87.70;;;;;;5054526;28;20203;-87
2024/01/17 02:02:44;;;;;;;33.70;31.10;;;-1.20;87.60;;;;;;5052951;28;20195;-86
2024/01/17 02:05:10;;;;;;;36.83;33.53;;;-1.20;87.50;;;;;;5053045;28;20190;-87
2024/01/17 02:07:37;;;;;;;35.37;32.07;;;-1.20;87.60;;;;;;5054024;28;20185;-87
2024/01/17 02:10:04;;;;;;;38.27;34.53;;;-1.20;87.50;;;;;;5054928;28;20179;-87
2024/01/17 02:12:30;;;;;;;37.03;33.37;;;-1.20;87.50;;;;;;5054903;28;20211;-87
2024/01/17 02:14:56;;;;;;;34.67;31.77;;;-1.20;87.90;;;;;;5053207;28;20188;-87
2024/01/17 02:17:22;;;;;;;37.13;33.43;;;-1.30;87.90;;;;;;5052929;28;20183;-86
2024/01/17 02:19:47;;;;;;;36.93;33.63;;;-1.20;87.60;;;;;;5051990;28;20544;-86
2024/01/17 02:22:13;;;;;;;34.40;31.77;;;-1.20;87.70;;;;;;5052600;28;20569;-86
2024/01/17 02:24:38;;;;;;;35.17;32.57;;;-1.20;87.40;;;;;;5053059;28;20182;-86
2024/01/17 02:27:04;;;;;;;38.13;34.97;;;-1.10;87.20;;;;;;5051630;28;20178;-86
2024/01/17 02:29:30;;;;;;;35.20;32.43;;;-1.20;87.20;;;;;;5051522;28;20181;-86
2024/01/17 02:31:56;;;;;;;39.30;36.13;;;-1.10;87.30;;;;;;5051428;28;20196;-86
2024/01/17 02:34:22;;;;;;;37.47;34.50;;;-1.10;87.00;;;;;;5052741;28;20179;-86
2024/01/17 02:36:47;;;;;;;35.13;32.10;;;-1.10;87.20;;;;;;5051495;28;20176;-86
2024/01/17 02:39:15;;;;;;;34.00;31.30;;;-1.10;87.00;;;;;;5051445;28;20220;-86
2024/01/17 02:41:42;;;;;;;35.47;32.60;;;-1.10;87.20;;;;;;5051304;28;20212;-86
2024/01/17 02:44:07;;;;;;;34.23;31.60;;;-1.10;87.00;;;;;;5052123;28;20168;-86
2024/01/17 02:46:33;;;;;;;36.00;32.97;;;-1.00;86.70;;;;;;5051310;28;20532;-87
2024/01/17 02:48:58;;;;;;;39.13;36.13;;;-1.00;86.50;;;;;;5051445;28;20179;-86
2024/01/17 02:51:24;;;;;;;35.80;32.97;;;-1.00;86.50;;;;;;5050940;28;20212;-86
2024/01/17 02:53:49;;;;;;;22.43;20.10;;;-1.00;86.60;;;;;;5060586;22;20231;-86
2024/01/17 02:56:16;;;;;;;22.10;19.50;;;-1.00;86.10;;;;;;5052810;28;20181;-86
2024/01/17 02:58:42;;;;;;;26.67;17.87;;;-0.90;86.00;;;;;;5051379;28;20175;-86
2024/01/17 03:01:07;;;;;;;23.23;20.87;;;-1.00;85.90;;;;;;5051659;28;20208;-86
2024/01/17 03:03:33;;;;;;;21.37;19.20;;;-1.00;86.10;;;;;;5054708;28;20195;-86
2024/01/17 03:05:58;;;;;;;22.87;20.57;;;-1.00;86.00;;;;;;5054726;28;20628;-86
2024/01/17 03:08:24;;;;;;;20.47;18.67;;;-0.90;85.60;;;;;;5055991;28;20172;-86
2024/01/17 03:10:50;;;;;;;25.83;20.07;;;-1.00;85.50;;;;;;5054591;28;20183;-86
2024/01/17 03:13:15;;;;;;;21.50;19.40;;;-1.00;85.50;;;;;;5056049;28;20238;-87
2024/01/17 03:15:41;;;;;;;20.37;18.47;;;-1.00;85.50;;;;;;5054526;28;20188;-86
2024/01/17 03:18:13;;;;;;;24.17;18.67;;;-1.00;86.20;;;;;;5054763;28;20206;-86
2024/01/17 03:20:40;;;;;;;20.97;18.80;;;-1.00;85.90;;;;;;5054944;28;20188;-86
2024/01/17 03:23:06;;;;;;;24.73;19.37;;;-1.00;85.90;;;;;;5055515;28;20203;-86
2024/01/17 03:25:32;;;;;;;18.60;16.80;;;-1.10;85.80;;;;;;5055553;28;20644;-86
2024/01/17 03:27:57;;;;;;;18.47;17.07;;;-1.10;85.70;;;;;;5054569;28;20759;-86
2024/01/17 03:30:23;;;;;;;21.63;17.93;;;-1.10;86.10;;;;;;5054294;28;20269;-86
2024/01/17 03:32:48;;;;;;;22.73;20.50;;;-1.10;85.90;;;;;;5054156;28;20196;-86
2024/01/17 03:35:14;;;;;;;25.13;18.47;;;-1.10;85.70;;;;;;5054568;28;20176;-86
2024/01/17 03:37:39;;;;;;;19.03;17.43;;;-1.10;85.70;;;;;;5054123;28;20232;-86
2024/01/17 03:40:05;;;;;;;21.93;18.67;;;-1.10;85.80;;;;;;5054282;28;20192;-86
2024/01/17 03:42:31;;;;;;;25.87;20.50;;;-1.20;86.10;;;;;;5055364;28;20199;-86
2024/01/17 03:44:57;;;;;;;22.33;20.07;;;-1.10;85.80;;;;;;5055264;28;20172;-86
2024/01/17 03:47:22;;;;;;;20.23;18.13;;;-1.20;85.80;;;;;;5053971;28;20201;-86
2024/01/17 03:49:48;;;;;;;19.13;17.23;;;-1.30;86.00;;;;;;5053952;28;20183;-86
2024/01/17 03:52:14;;;;;;;21.10;19.20;;;-1.30;85.90;;;;;;5053589;28;20204;-87
2024/01/17 03:54:39;;;;;;;18.90;17.30;;;-1.20;85.70;;;;;;5053904;28;20161;-86
2024/01/17 03:57:05;;;;;;;21.33;19.33;;;-1.40;86.20;;;;;;5055376;28;20539;-86
2024/01/17 03:59:31;;;;;;;28.03;22.43;;;-1.30;86.00;;;;;;5054116;28;20168;-86
2024/01/17 04:01:56;;;;;;;22.20;19.83;;;-1.30;85.70;;;;;;5053707;28;20187;-86
2024/01/17 04:04:22;;;;;;;36.17;32.90;;;-1.20;85.70;;;;;;5053560;28;20175;-86
2024/01/17 04:06:47;;;;;;;35.87;32.47;;;-1.20;85.80;;;;;;5053563;28;20233;-86
2024/01/17 04:09:13;;;;;;;36.17;33.17;;;-1.30;86.10;;;;;;5053491;28;20180;-86
2024/01/17 04:11:38;;;;;;;33.70;30.73;;;-1.20;86.00;;;;;;5053468;28;20172;-86
2024/01/17 04:14:04;;;;;;;37.07;33.67;;;-1.30;86.20;;;;;;5053495;28;20197;-86
2024/01/17 04:16:30;;;;;;;40.97;37.40;;;-1.30;86.00;;;;;;5054688;28;20172;-86
2024/01/17 04:18:55;;;;;;;34.90;32.10;;;-1.20;85.70;;;;;;5054041;28;20667;-86
2024/01/17 04:21:21;;;;;;;38.07;34.50;;;-1.30;86.30;;;;;;5054420;28;20687;-86
2024/01/17 04:23:48;;;;;;;37.77;34.80;;;-1.30;86.30;;;;;;5053262;28;20196;-86
2024/01/17 04:26:20;;;;;;;38.93;35.60;;;-1.30;86.10;;;;;;5053378;28;20176;-87
2024/01/17 04:28:45;;;;;;;35.67;32.93;;;-1.30;86.40;;;;;;5053097;28;20177;-86
2024/01/17 04:31:11;;;;;;;36.20;33.20;;;-1.30;86.60;;;;;;5054323;28;20182;-86
2024/01/17 04:33:36;;;;;;;35.83;33.33;;;-1.30;86.40;;;;;;5054262;28;20684;-86
2024/01/17 04:36:02;;;;;;;40.67;37.33;;;-1.30;86.10;;;;;;5052976;28;20677;-86
2024/01/17 04:38:27;;;;;;;40.30;36.60;;;-1.30;86.00;;;;;;5052900;28;20179;-86
2024/01/17 04:40:53;;;;;;;38.57;35.47;;;-1.30;86.30;;;;;;5052879;28;20268;-86
2024/01/17 04:43:18;;;;;;;36.30;33.40;;;-1.30;86.20;;;;;;5052663;28;20631;-86
2024/01/17 04:45:44;;;;;;;42.97;39.07;;;-1.30;86.20;;;;;;5052775;28;20166;-86
2024/01/17 04:48:13;;;;;;;38.97;35.37;;;-1.30;86.20;;;;;;5052708;28;20690;-86
2024/01/17 04:50:38;;;;;;;27.50;24.33;;;-1.30;85.90;;;;;;5053969;28;20177;-86
2024/01/17 04:53:04;;;;;;;22.23;20.07;;;-1.30;85.90;;;;;;5052542;28;20212;-86
2024/01/17 04:55:29;;;;;;;25.87;20.60;;;-1.30;85.90;;;;;;5052854;28;20597;-86
2024/01/17 04:57:55;;;;;;;39.30;36.03;;;-1.30;86.00;;;;;;5052805;28;20180;-86
2024/01/17 05:00:20;;;;;;;39.30;35.97;;;-1.30;86.10;;;;;;5052535;28;20200;-86
2024/01/17 05:02:46;;;;;;;36.57;33.50;;;-1.30;85.90;;;;;;5052825;28;20192;-86
2024/01/17 05:05:11;;;;;;;22.83;18.57;;;-1.30;86.10;;;;;;5052530;28;20183;-86
2024/01/17 05:07:37;;;;;;;40.30;35.70;;;-1.20;86.20;;;;;;5052552;28;20176;-86
2024/01/17 05:10:03;;;;;;;34.83;31.67;;;-1.20;86.20;;;;;;5052528;28;20191;-86
2024/01/17 05:12:29;;;;;;;39.20;35.23;;;-1.20;86.20;;;;;;5052365;28;20211;-86
2024/01/17 05:14:54;;;;;;;41.67;38.13;;;-1.20;86.00;;;;;;5052431;28;20176;-86
2024/01/17 05:17:20;;;;;;;37.67;34.07;;;-1.20;86.00;;;;;;5052421;28;20660;-86
2024/01/17 05:19:45;;;;;;;40.57;37.07;;;-1.20;86.00;;;;;;5052440;28;20177;-86
2024/01/17 05:22:14;;;;;;;38.73;34.90;;;-1.20;86.20;;;;;;5052327;28;20196;-86
2024/01/17 05:24:39;;;;;;;35.60;32.03;;;-1.10;86.00;;;;;;5052300;28;20184;-86
2024/01/17 05:27:05;;;;;;;36.20;33.37;;;-1.10;86.30;;;;;;5053498;28;20172;-86
2024/01/17 05:29:32;;;;;;;37.87;30.93;;;-1.10;86.30;;;;;;5052401;28;20176;-86
2024/01/17 05:31:58;;;;;;;38.27;35.17;;;-1.10;86.50;;;;;;5052392;28;20180;-86
2024/01/17 05:34:23;;;;;;;40.00;36.83;;;-1.10;86.20;;;;;;5052249;28;20232;-86
2024/01/17 05:36:49;;;;;;;41.67;37.80;;;-1.10;86.10;;;;;;5052601;28;20726;-86
2024/01/17 05:39:14;;;;;;;40.37;36.90;;;-1.10;86.10;;;;;;5052436;28;20179;-86
2024/01/17 05:41:40;;;;;;;38.50;34.80;;;-1.10;86.00;;;;;;5053344;28;20199;-86
2024/01/17 05:44:06;;;;;;;36.40;33.53;;;-1.10;86.20;;;;;;5052011;28;20192;-86
2024/01/17 05:46:32;;;;;;;38.03;34.77;;;-1.10;86.30;;;;;;5052162;28;20255;-86
2024/01/17 05:48:58;;;;;;;36.27;33.23;;;-1.10;86.20;;;;;;5053274;28;20168;-86
2024/01/17 05:51:23;;;;;;;35.47;32.37;;;-1.00;86.40;;;;;;5053729;28;20168;-86
2024/01/17 05:53:49;;;;;;;34.20;31.33;;;-1.00;86.00;;;;;;5051799;28;20210;-86
2024/01/17 05:56:14;;;;;;;37.27;32.87;;;-1.00;85.90;;;;;;5053574;28;20184;-86
2024/01/17 05:58:40;;;;;;;19.77;17.80;;;-1.00;86.40;;;;;;5053643;28;20176;-86
2024/01/17 06:01:05;;;;;;;22.90;20.70;;;-1.00;86.20;;;;;;5051830;28;20192;-87
2024/01/17 06:03:31;;;;;;;24.23;20.93;;;-0.90;86.00;;;;;;5053776;28;20279;-86
2024/01/17 06:05:56;;;;;;;21.77;18.90;;;-1.00;86.00;;;;;;5051931;28;20178;-87
2024/01/17 06:08:22;;;;;;;26.17;20.23;;;-1.00;85.80;;;;;;5051976;28;20184;-86
2024/01/17 06:10:47;;;;;;;20.17;18.23;;;-1.00;85.90;;;;;;5051721;28;20705;-88
2024/01/17 06:13:13;;;;;;;22.73;20.30;;;-1.00;86.30;;;;;;5052324;28;20196;-88
2024/01/17 06:15:38;;;;;;;23.37;20.97;;;-0.90;85.80;;;;;;5052500;28;20731;-88
2024/01/17 06:18:04;;;;;;;20.53;18.73;;;-0.90;85.90;;;;;;5051621;28;20263;-88
2024/01/17 06:20:30;;;;;;;23.20;20.70;;;-0.90;85.50;;;;;;5052946;28;20192;-88
2024/01/17 06:22:56;;;;;;;22.80;20.40;;;-0.90;85.50;;;;;;5053384;28;20278;-89
2024/01/17 06:25:21;;;;;;;21.37;19.10;;;-1.00;85.50;;;;;;5052596;28;20251;-89
2024/01/17 06:27:47;;;;;;;19.97;18.03;;;-1.00;85.60;;;;;;5052027;28;20180;-87
2024/01/17 06:30:13;;;;;;;22.77;20.60;;;-0.90;85.20;;;;;;5053172;28;20547;-86
2024/01/17 06:32:38;;;;;;;28.17;20.37;;;-1.00;85.30;;;;;;5051886;28;20246;-86
2024/01/17 06:35:04;;;;;;;23.57;21.17;;;-1.00;85.60;;;;;;5053096;28;20170;-86
2024/01/17 06:37:30;;;;;;;21.93;19.83;;;-1.00;85.20;;;;;;5055852;28;20176;-88
2024/01/17 06:39:56;;;;;;;20.60;18.90;;;-1.00;84.90;;;;;;5057740;28;20581;-85
2024/01/17 06:42:21;;;;;;;20.73;18.60;;;-1.00;85.10;;;;;;5060714;28;20188;-86
2024/01/17 06:44:47;;;;;;;21.00;18.97;;;-1.00;85.00;;;;;;5059238;28;20172;-86
2024/01/17 06:47:12;;;;;;;21.43;19.47;;;-1.00;85.00;;;;;;5061118;28;20275;-86
2024/01/17 06:49:39;;;;;;;19.37;17.70;;;-1.00;84.40;;;;;;5060909;28;20638;-86
2024/01/17 06:52:06;;;;;;;22.40;20.27;;;-1.00;84.60;;;;;;5059695;28;20179;-86
2024/01/17 06:54:31;;;;;;;21.47;19.23;;;-1.10;84.70;;;;;;5062367;28;20176;-86
2024/01/17 06:56:56;;;;;;;20.67;18.70;;;-1.10;85.10;;;;;;5059847;28;20183;-86
2024/01/17 06:59:22;;;;;;;;;;;-1.10;85.10;;;;;;5061927;28;20206;-86
2024/01/17 07:01:47;;;;;;;;;;;-1.10;84.60;;;;;;5061590;28;19912;-86
2024/01/17 07:04:13;;;;;;;;;;;-1.10;84.50;;;;;;5062435;28;19932;-86
2024/01/17 07:06:38;;;;;;;;;;;-1.10;84.90;;;;;;5062376;28;19941;-86
2024/01/17 07:09:04;;;;;;;;;;;-1.20;85.30;;;;;;5061929;28;20081;-86
2024/01/17 07:11:29;;;;;;;;;;;-1.20;85.00;;;;;;5061653;28;19904;-86
2024/01/17 07:13:55;;;;;;;;;;;-1.20;85.00;;;;;;5063546;28;19912;-86
2024/01/17 07:16:21;;;;;;;;;;;-1.20;85.30;;;;;;5055621;28;20406;-85
2024/01/17 07:18:47;;;;;;;;;;;-1.20;85.40;;;;;;5056614;28;19912;-85
2024/01/17 07:21:12;;;;;;;;;;;-1.20;85.30;;;;;;5061258;28;20292;-88
2024/01/17 07:23:38;;;;;;;;;;;-1.20;84.10;;;;;;5059952;28;20295;-92
2024/01/17 07:26:04;;;;;;;;;;;-1.20;84.50;;;;;;5058342;28;19935;-87
2024/01/17 07:28:29;;;;;;;;;;;-1.10;84.00;;;;;;5064713;28;19911;-88
2024/01/17 07:30:55;;;;;;;;;;;-1.20;84.10;;;;;;5062922;28;20372;-88
2024/01/17 07:33:20;;;;;;;;;;;-1.10;84.00;;;;;;5063894;28;19904;-88
2024/01/17 07:35:45;;;;;;;;;;;-1.20;83.80;;;;;;5063261;28;19904;-88
2024/01/17 07:38:11;;;;;;;;;;;-1.10;83.40;;;;;;5063523;28;19911;-88
2024/01/17 07:40:37;;;;;;;;;;;-1.10;82.70;;;;;;5063776;28;19908;-87
2024/01/17 07:43:03;;;;;;;;;;;-1.10;82.50;;;;;;5063775;28;19909;-88
2024/01/17 07:45:28;;;;;;;;;;;-1.00;81.80;;;;;;5066769;28;20296;-88
2024/01/17 07:47:54;;;;;;;;;;;-1.00;81.50;;;;;;5064943;28;19905;-88
2024/01/17 07:50:19;;;;;;;;;;;-1.00;81.30;;;;;;5064042;28;19904;-88
2024/01/17 07:52:45;;;;;;;;;;;-1.00;81.70;;;;;;5063731;28;20361;-87
2024/01/17 07:55:10;;;;;;;;;;;-1.00;82.20;;;;;;5065314;28;20008;-88
2024/01/17 07:57:36;;;;;;;;;;;-1.10;82.40;;;;;;5065409;28;19905;-88
2024/01/17 08:00:04;;;;;;;;;;;-1.10;83.10;;;;;;5065494;28;20384;-87
2024/01/17 08:02:31;;;;;;;;;;;-1.10;82.80;;;;;;5063794;28;19912;-87
2024/01/17 08:04:56;;;;;;;;;;;-1.20;83.20;;;;;;5064730;28;19904;-88
2024/01/17 08:07:24;;;;;;;;;;;-1.20;82.90;;;;;;5064590;28;19911;-88
2024/01/17 08:09:53;;;;;;;;;;;-1.20;83.50;;;;;;5064451;28;19904;-88
2024/01/17 08:12:19;;;;;;;;;;;-1.20;82.80;;;;;;5063651;28;19904;-88
2024/01/17 08:14:45;;;;;;;;;;;-1.20;83.10;;;;;;5063626;28;19904;-87
2024/01/17 08:17:10;;;;;;;;;;;-1.20;83.40;;;;;;5064038;28;19904;-88
2024/01/17 08:19:36;;;;;;;;;;;-1.20;83.60;;;;;;5064742;28;19995;-88
2024/01/17 08:22:01;;;;;;;;;;;-1.20;83.50;;;;;;5064654;28;19909;-88
2024/01/17 08:24:27;;;;;;;19.33;17.80;;;-1.20;83.70;;;;;;5063640;28;19905;-87
2024/01/17 08:26:52;;;;;;;19.77;18.27;;;-1.20;83.80;;;;;;5062470;28;20204;-87
2024/01/17 08:29:18;;;;;;;20.03;18.40;;;-1.20;83.70;;;;;;5062789;28;20180;-87
2024/01/17 08:31:44;;;;;;;;;;;-1.20;83.60;;;;;;5063763;28;19904;-87
2024/01/17 08:34:11;;;;;;;19.23;17.73;;;-1.20;83.70;;;;;;5062416;28;19911;-88
2024/01/17 08:36:37;;;;;;;21.90;19.57;;;-1.20;83.60;;;;;;5062284;28;20682;-87
2024/01/17 08:39:05;;;;;;;17.43;16.23;;;-1.20;83.80;;;;;;5062613;28;20203;-88
2024/01/17 08:41:30;;;;;;;22.30;18.50;;;-1.30;84.00;;;;;;5063806;28;20218;-88
2024/01/17 08:43:56;;;;;;;20.33;18.70;;;-1.30;83.80;;;;;;5062710;28;20696;-88
2024/01/17 08:46:21;;;;;;;19.90;18.00;;;-1.20;83.20;;;;;;5063656;28;20521;-87
2024/01/17 08:48:47;;;;;;;25.73;19.10;;;-1.20;83.20;;;;;;5061876;28;20789;-87
2024/01/17 08:51:12;;;;;;;22.40;17.63;;;-1.20;83.50;;;;;;5064211;28;20176;-87
2024/01/17 08:53:38;;;;;;;19.33;17.53;;;-1.20;83.40;;;;;;5081976;22;20285;-84
2024/01/17 08:56:07;;;;;;;20.20;17.97;;;-1.20;83.80;;;;;;5052422;28;20175;-84
2024/01/17 08:58:33;;;;;;;18.50;16.97;;;-1.20;83.40;;;;;;5051953;28;20526;-84
2024/01/17 09:00:58;;;;;;;18.30;17.00;;;-1.20;83.30;;;;;;5053301;28;20217;-86
2024/01/17 09:03:24;;;;;;;18.40;16.93;;;-1.20;83.30;;;;;;5052157;28;20198;-86
2024/01/17 09:05:50;;;;;;;18.23;16.73;;;-1.20;83.40;;;;;;5053058;28;20203;-86
2024/01/17 09:08:16;;;;;;;19.80;18.00;;;-1.20;83.40;;;;;;5053490;28;20543;-85
2024/01/17 09:10:42;;;;;;;18.70;17.23;;;-1.20;83.60;;;;;;5053451;28;20179;-86
2024/01/17 09:13:09;;;;;;;21.60;18.10;;;-1.20;83.80;;;;;;5052104;28;20245;-86
2024/01/17 09:15:34;;;;;;;23.70;22.00;;;-1.10;83.20;;;;;;5052433;28;20179;-86
2024/01/17 09:18:00;;;;;;;27.70;25.50;;;-1.10;83.00;;;;;;5053459;28;20180;-86
2024/01/17 09:20:26;;;;;;;30.10;27.70;;;-1.10;82.80;;;;;;5051826;28;20231;-85
2024/01/17 09:22:51;;;;;;;26.87;24.80;;;-1.10;83.20;;;;;;5051928;28;20195;-86
2024/01/17 09:25:17;;;;;;;30.03;27.80;;;-1.10;83.10;;;;;;5053193;28;20176;-86
2024/01/17 09:27:42;;;;;;;31.03;28.93;;;-1.10;82.70;;;;;;5053360;28;20172;-86
2024/01/17 09:30:08;;;;;;;33.20;30.43;;;-1.10;82.70;;;;;;5051790;28;20268;-85
2024/01/17 09:32:34;;;;;;;32.37;29.67;;;-1.00;82.80;;;;;;5053209;28;20223;-86
2024/01/17 09:35:00;;;;;;;34.87;32.10;;;-1.00;83.00;;;;;;5051965;28;20649;-85
2024/01/17 09:37:25;;;;;;;36.93;33.93;;;-1.00;82.20;;;;;;5053061;28;20179;-86
2024/01/17 09:39:51;;;;;;;33.57;31.23;;;-0.90;81.40;;;;;;5053101;28;20669;-85
2024/01/17 09:42:17;;;;;;;33.97;31.47;;;-0.90;81.70;;;;;;5052915;28;20176;-86
2024/01/17 09:44:43;;;;;;;31.63;29.27;;;-0.90;82.10;;;;;;5051696;28;20259;-86
2024/01/17 09:47:12;;;;;;;33.03;30.63;;;-0.90;82.80;;;;;;5051562;28;20669;-86
2024/01/17 09:49:39;;;;;;;32.93;30.33;;;-0.80;81.80;;;;;;5051570;28;20625;-86
2024/01/17 09:52:06;;;;;;;33.93;31.40;;;-0.80;81.60;;;;;;5052809;28;20175;-85
2024/01/17 09:54:42;;;;;;;34.77;32.13;;;-0.80;81.80;;;;;;5051596;28;20230;-86
2024/01/17 09:57:13;;;;;;;34.77;32.07;;;-0.80;81.80;;;;;;5053500;28;20170;-86
2024/01/17 10:00:11;;;;;;;32.40;29.90;;;-0.70;81.30;;;;;;5053061;28;20592;-86
2024/01/17 10:02:38;;;;;;;21.00;19.50;;;-0.70;81.60;;;;;;5050687;28;20627;-85
2024/01/17 10:05:09;;;;;;;20.53;19.03;;;-0.70;80.90;;;;;;5053053;28;20175;-86
2024/01/17 10:07:36;;;;;;;34.73;32.30;;;-0.70;81.30;;;;;;5052809;28;20164;-86
2024/01/17 10:10:01;;;;;;;21.90;20.27;;;-0.60;81.30;;;;;;5051340;28;20176;-85
2024/01/17 10:12:27;;;;;;;34.73;31.93;;;-0.60;80.40;;;;;;5055823;28;20516;-86
2024/01/17 10:14:53;;;;;;;34.23;31.80;;;-0.60;80.60;;;;;;5055420;28;20535;-86
2024/01/17 10:17:19;;;;;;;32.13;29.97;;;-0.60;81.30;;;;;;5055485;28;20176;-86
2024/01/17 10:19:44;;;;;;;33.17;30.97;;;-0.60;80.90;;;;;;5055457;28;20172;-85
2024/01/17 10:22:10;;;;;;;37.50;34.70;;;-0.60;81.00;;;;;;5055421;28;20227;-88
2024/01/17 10:24:38;;;;;;;37.73;34.77;;;-0.60;81.30;;;;;;5056862;28;20208;-86
2024/01/17 10:27:04;;;;;;;35.67;32.93;;;-0.60;81.40;;;;;;5055324;28;20247;-86
2024/01/17 10:29:31;;;;;;;37.80;35.07;;;-0.60;81.40;;;;;;5055276;28;20648;-87
2024/01/17 10:31:59;;;;;;;37.50;34.23;;;-0.60;81.10;;;;;;5056772;28;20255;-85
2024/01/17 10:34:28;;;;;;;37.33;34.40;;;-0.60;81.20;;;;;;5055495;28;20204;-87
2024/01/17 10:36:54;;;;;;;19.87;18.50;;;-0.60;81.40;;;;;;5055457;28;20562;-86
2024/01/17 10:39:21;;;;;;;21.37;19.80;;;-0.60;81.80;;;;;;5056782;28;20181;-86
2024/01/17 10:41:54;;;;;;;22.23;20.03;;;-0.50;81.20;;;;;;5056503;28;20191;-86
2024/01/17 10:44:25;;;;;;;20.60;19.10;;;-0.60;81.60;;;;;;5055009;28;20699;-86
2024/01/17 10:46:51;;;;;;;22.93;20.70;;;-0.60;81.80;;;;;;5056488;28;20177;-86
2024/01/17 10:49:20;;;;;;;20.40;19.03;;;-0.60;81.90;;;;;;5055021;28;20172;-86
2024/01/17 10:52:03;;;;;;;21.57;19.97;;;-0.60;81.70;;;;;;5056116;28;20180;-86
2024/01/17 10:54:43;;;;;;;23.23;20.93;;;-0.50;81.50;;;;;;5055911;28;20204;-86
2024/01/17 10:57:10;;;;;;;22.33;20.40;;;-0.40;81.30;;;;;;5056173;28;20169;-86
2024/01/17 10:59:41;;;;;;;20.17;18.63;;;-0.50;81.30;;;;;;5056090;28;20301;-87
2024/01/17 11:02:16;;;;;;;21.17;19.57;;;-0.50;81.30;;;;;;5055003;28;20194;-87
2024/01/17 11:04:45;;;;;;;21.30;19.47;;;-0.60;81.10;;;;;;5054796;28;20170;-87
2024/01/17 11:07:12;;;;;;;20.37;18.90;;;-0.50;80.70;;;;;;5054873;28;20186;-86
2024/01/17 11:09:40;;;;;;;20.10;18.60;;;-0.50;81.50;;;;;;5054738;28;20293;-86
2024/01/17 11:12:07;;;;;;;19.73;18.20;;;-0.60;81.40;;;;;;5056025;28;20259;-86
2024/01/17 11:14:33;;;;;;;21.57;19.80;;;-0.50;81.70;;;;;;5055888;28;20172;-86
2024/01/17 11:17:03;;;;;;;20.67;19.13;;;-0.50;81.40;;;;;;5054659;28;20203;-86
2024/01/17 11:19:34;;;;;;;23.57;20.77;;;-0.50;81.40;;;;;;5054704;28;20268;-86
2024/01/17 11:22:01;;;;;;;21.37;19.57;;;-0.50;81.50;;;;;;5054319;28;20200;-86
2024/01/17 11:24:33;;;;;;;21.37;19.70;;;-0.60;80.80;;;;;;5054320;28;20276;-86
2024/01/17 11:27:17;;;;;;;22.60;20.60;;;-0.50;80.80;;;;;;5056084;28;20153;-86
2024/01/17 11:30:19;;;;;;;20.67;19.20;;;-0.50;80.90;;;;;;5055586;28;20246;-86
2024/01/17 11:33:04;;;;;;;22.27;20.53;;;-0.50;80.80;;;;;;5051059;28;20196;-88
2024/01/17 11:35:49;;;;;;;22.40;20.77;;;-0.40;80.20;;;;;;5054392;28;20658;-88
2024/01/17 11:38:24;;;;;;;21.67;19.87;;;-0.40;80.30;;;;;;5054544;28;20164;-88
2024/01/17 11:41:05;;;;;;;23.97;21.37;;;-0.50;80.30;;;;;;5054080;28;20196;-87
2024/01/17 11:43:33;;;;;;;24.03;21.83;;;-0.40;79.60;;;;;;5054637;28;20192;-86
2024/01/17 11:45:59;;;;;;;24.47;22.23;;;-0.40;80.00;;;;;;5055214;28;20640;-86
2024/01/17 11:48:29;;;;;;;23.00;21.03;;;-0.40;80.70;;;;;;5055228;28;20200;-88
2024/01/17 11:51:01;;;;;;;35.50;32.60;;;-0.50;79.60;;;;;;5054029;28;20267;-87
2024/01/17 11:53:28;;;;;;;38.07;34.70;;;-0.40;79.50;;;;;;5053504;28;20219;-85
2024/01/17 11:55:55;;;;;;;35.73;33.23;;;-0.40;79.50;;;;;;5053984;28;20574;-87
2024/01/17 11:58:22;;;;;;;37.40;34.20;;;-0.50;79.50;;;;;;5053992;28;20177;-87
2024/01/17 12:00:51;;;;;;;36.90;33.97;;;-0.40;79.70;;;;;;5055195;28;20193;-88
2024/01/17 12:03:32;;;;;;;36.07;33.43;;;-0.40;79.20;;;;;;5055095;28;20656;-86
2024/01/17 12:05:57;;;;;;;40.37;37.17;;;-0.40;79.70;;;;;;5054865;28;20219;-86
2024/01/17 12:08:24;;;;;;;39.23;36.17;;;-0.50;79.80;;;;;;5053532;28;20171;-86
2024/01/17 12:10:54;;;;;;;38.80;35.90;;;-0.50;80.00;;;;;;5053312;28;20177;-86
2024/01/17 12:13:23;;;;;;;40.77;37.47;;;-0.50;79.70;;;;;;5053269;28;20197;-86
2024/01/17 12:15:51;;;;;;;40.53;37.23;;;-0.40;79.60;;;;;;5053454;28;20229;-86
2024/01/17 12:18:21;;;;;;;42.20;38.87;;;-0.40;79.30;;;;;;5053457;28;20201;-86
2024/01/17 12:20:48;;;;;;;42.13;38.63;;;-0.40;79.80;;;;;;5053229;28;20228;-87
2024/01/17 12:23:19;;;;;;;45.47;41.33;;;-0.40;80.30;;;;;;5053029;28;20275;-85
2024/01/17 12:25:45;;;;;;;45.53;41.83;;;-0.40;80.10;;;;;;5054387;28;20145;-89
2024/01/17 12:28:17;;;;;;;43.10;39.53;;;-0.30;80.10;;;;;;5053234;28;20173;-89
2024/01/17 12:31:06;;;;;;;42.00;38.67;;;-0.30;80.10;;;;;;5053095;28;20169;-85
2024/01/17 12:33:37;;;;;;;38.57;35.57;;;-0.40;80.30;;;;;;5052197;28;20271;-85
2024/01/17 12:36:04;;;;;;;40.00;36.97;;;-0.40;80.10;;;;;;5052798;28;20813;-88